Time,TemperatureF,DewpointF,PressureIn,WindDirection,WindDirectionDegrees,WindSpeedMPH,WindSpeedGustMPH,Humidity,HourlyPrecipIn,Conditions,Clouds,dailyrainin,SoftwareType,DateUTC
2013-02-02 00:10:00,32.8,14.0,30.38,NE,37,7.0,14.0,46,0.00,,,0.00,weatherlink.com 1.10,2013-02-02 05:10:00,
2013-02-02 00:25:00,32.9,12.0,30.38,NE,47,13.0,14.0,43,0.00,,,0.00,weatherlink.com 1.10,2013-02-02 05:25:00,
2013-02-02 00:40:00,32.6,14.0,30.37,NE,34,11.0,14.0,46,0.00,,,0.00,weatherlink.com 1.10,2013-02-02 05:40:00,
2013-02-02 00:55:00,32.0,14.0,30.37,ENE,59,15.0,15.0,47,0.00,,,0.00,weatherlink.com 1.10,2013-02-02 05:55:00,
2013-02-02 01:10:00,31.1,13.0,30.37,NE,37,8.0,15.0,48,0.00,,,0.00,weatherlink.com 1.10,2013-02-02 06:10:00,
2013-02-02 01:25:00,30.5,13.0,30.38,ENE,72,7.0,12.0,49,0.00,,,0.00,weatherlink.com 1.10,2013-02-02 06:25:00,
2013-02-02 01:40:00,30.2,13.0,30.37,NE,50,6.0,12.0,50,0.00,,,0.00,weatherlink.com 1.10,2013-02-02 06:40:00,
2013-02-02 01:55:00,30.1,14.0,30.37,NE,44,7.0,13.0,51,0.00,,,0.00,weatherlink.com 1.10,2013-02-02 06:55:00,
2013-02-02 02:10:00,30.0,14.0,30.37,NE,44,5.0,13.0,52,0.00,,,0.00,weatherlink.com 1.10,2013-02-02 07:10:00,
2013-02-02 02:25:00,29.6,15.0,30.38,NE,51,8.0,11.0,54,0.00,,,0.00,weatherlink.com 1.10,2013-02-02 07:25:00,
2013-02-02 02:40:00,29.4,14.0,30.38,NE,49,7.0,11.0,53,0.00,,,0.00,weatherlink.com 1.10,2013-02-02 07:40:00,
2013-02-02 02:55:00,29.2,14.0,30.38,NE,43,5.0,11.0,54,0.00,,,0.00,weatherlink.com 1.10,2013-02-02 07:55:00,
2013-02-02 03:10:00,28.8,14.0,30.38,ENE,61,8.0,12.0,54,0.00,,,0.00,weatherlink.com 1.10,2013-02-02 08:10:00,
2013-02-02 03:25:00,28.5,14.0,30.38,NE,46,7.0,11.0,55,0.00,,,0.00,weatherlink.com 1.10,2013-02-02 08:25:00,
2013-02-02 03:40:00,28.2,14.0,30.38,NE,52,6.0,10.0,55,0.00,,,0.00,weatherlink.com 1.10,2013-02-02 08:40:00,
2013-02-02 03:56:00,27.9,14.0,30.38,NE,46,6.0,9.0,56,0.00,,,0.00,weatherlink.com 1.10,2013-02-02 08:56:00,
2013-02-02 04:11:00,27.8,13.0,30.38,NE,44,7.0,10.0,55,0.00,,,0.00,weatherlink.com 1.10,2013-02-02 09:11:00,
2013-02-02 04:25:00,27.9,14.0,30.38,NE,50,8.0,11.0,56,0.00,,,0.00,weatherlink.com 1.10,2013-02-02 09:25:00,
2013-02-02 04:40:00,27.7,14.0,30.38,NE,43,6.0,9.0,57,0.00,,,0.00,weatherlink.com 1.10,2013-02-02 09:40:00,
2013-02-02 04:55:00,27.7,14.0,30.38,NE,48,7.0,10.0,57,0.00,,,0.00,weatherlink.com 1.10,2013-02-02 09:55:00,
2013-02-02 05:11:00,27.5,14.0,30.39,NE,46,7.0,10.0,57,0.00,,,0.00,weatherlink.com 1.10,2013-02-02 10:11:00,
2013-02-02 05:25:00,27.3,13.0,30.39,NE,47,8.0,10.0,56,0.00,,,0.00,weatherlink.com 1.10,2013-02-02 10:25:00,
2013-02-02 05:41:00,27.4,14.0,30.38,NE,51,7.0,11.0,58,0.00,,,0.00,weatherlink.com 1.10,2013-02-02 10:41:00,
2013-02-02 05:56:00,27.3,13.0,30.39,NE,48,8.0,10.0,56,0.00,,,0.00,weatherlink.com 1.10,2013-02-02 10:56:00,
2013-02-02 06:11:00,27.1,13.0,30.39,ENE,57,9.0,10.0,56,0.00,,,0.00,weatherlink.com 1.10,2013-02-02 11:11:00,
2013-02-02 06:26:00,26.9,14.0,30.39,NE,50,9.0,9.0,59,0.00,,,0.00,weatherlink.com 1.10,2013-02-02 11:26:00,
2013-02-02 06:41:00,26.7,14.0,30.39,ENE,66,7.0,8.0,58,0.00,,,0.00,weatherlink.com 1.10,2013-02-02 11:41:00,
2013-02-02 06:56:00,26.1,14.0,30.39,NE,37,4.0,8.0,60,0.00,,,0.00,weatherlink.com 1.10,2013-02-02 11:56:00,
2013-02-02 07:11:00,26.2,15.0,30.40,NE,51,3.0,9.0,62,0.00,,,0.00,weatherlink.com 1.10,2013-02-02 12:11:00,
2013-02-02 07:26:00,27.2,16.0,30.41,NE,45,4.0,7.0,63,0.00,,,0.00,weatherlink.com 1.10,2013-02-02 12:26:00,
2013-02-02 07:41:00,28.3,16.0,30.42,NE,45,4.0,7.0,61,0.00,,,0.00,weatherlink.com 1.10,2013-02-02 12:41:00,
2013-02-02 07:56:00,29.5,16.0,30.41,NE,44,6.0,8.0,58,0.00,,,0.00,weatherlink.com 1.10,2013-02-02 12:56:00,
2013-02-02 08:11:00,29.7,14.0,30.41,NE,37,5.0,9.0,53,0.00,,,0.00,weatherlink.com 1.10,2013-02-02 13:11:00,
2013-02-02 08:26:00,30.5,14.0,30.41,ENE,65,5.0,9.0,50,0.00,,,0.00,weatherlink.com 1.10,2013-02-02 13:26:00,
2013-02-02 08:41:00,31.3,13.0,30.42,NE,53,5.0,7.0,46,0.00,,,0.00,weatherlink.com 1.10,2013-02-02 13:41:00,
2013-02-02 08:56:00,31.9,14.0,30.41,NE,41,4.0,8.0,47,0.00,,,0.00,weatherlink.com 1.10,2013-02-02 13:56:00,
2013-02-02 09:11:00,32.6,13.0,30.41,East,79,6.0,8.0,44,0.00,,,0.00,weatherlink.com 1.10,2013-02-02 14:11:00,
2013-02-02 09:26:00,33.0,14.0,30.41,ENE,61,5.0,7.0,45,0.00,,,0.00,weatherlink.com 1.10,2013-02-02 14:26:00,
2013-02-02 09:41:00,33.5,14.0,30.41,ESE,121,3.0,4.0,45,0.00,,,0.00,weatherlink.com 1.10,2013-02-02 14:41:00,
2013-02-02 09:56:00,34.0,17.0,30.40,ESE,105,5.0,6.0,49,0.00,,,0.00,weatherlink.com 1.10,2013-02-02 14:56:00,
2013-02-02 10:11:00,34.2,19.0,30.40,SE,140,1.0,7.0,54,0.00,,,0.00,weatherlink.com 1.10,2013-02-02 15:11:00,
2013-02-02 10:26:00,34.9,18.0,30.40,SE,138,3.0,7.0,51,0.00,,,0.00,weatherlink.com 1.10,2013-02-02 15:26:00,
2013-02-02 10:41:00,35.4,18.0,30.39,SE,127,3.0,6.0,50,0.00,,,0.00,weatherlink.com 1.10,2013-02-02 15:41:00,
2013-02-02 10:56:00,35.8,18.0,30.39,ESE,109,3.0,7.0,48,0.00,,,0.00,weatherlink.com 1.10,2013-02-02 15:56:00,
2013-02-02 11:11:00,36.3,16.0,30.39,East,89,2.0,5.0,43,0.00,,,0.00,weatherlink.com 1.10,2013-02-02 16:11:00,
2013-02-02 11:26:00,36.7,12.0,30.37,ESE,108,4.0,6.0,36,0.00,,,0.00,weatherlink.com 1.10,2013-02-02 16:26:00,
2013-02-02 11:41:00,37.1,15.0,30.36,SE,145,1.0,7.0,41,0.00,,,0.00,weatherlink.com 1.10,2013-02-02 16:41:00,
2013-02-02 11:56:00,37.3,20.0,30.35,SE,140,3.0,7.0,49,0.00,,,0.00,weatherlink.com 1.10,2013-02-02 16:56:00,
2013-02-02 12:12:00,37.5,20.0,30.34,SE,133,4.0,8.0,50,0.00,,,0.00,weatherlink.com 1.10,2013-02-02 17:12:00,
2013-02-02 12:26:00,37.7,21.0,30.33,SE,128,3.0,6.0,52,0.00,,,0.00,weatherlink.com 1.10,2013-02-02 17:26:00,
2013-02-02 12:42:00,38.1,23.0,30.32,ESE,118,4.0,7.0,54,0.00,,,0.00,weatherlink.com 1.10,2013-02-02 17:42:00,
2013-02-02 12:56:00,38.4,24.0,30.30,SE,126,4.0,6.0,57,0.00,,,0.00,weatherlink.com 1.10,2013-02-02 17:56:00,
2013-02-02 13:12:00,38.6,25.0,30.29,South,186,6.0,10.0,58,0.00,,,0.00,weatherlink.com 1.10,2013-02-02 18:12:00,
2013-02-02 13:27:00,39.0,26.0,30.28,SE,126,3.0,7.0,61,0.00,,,0.00,weatherlink.com 1.10,2013-02-02 18:27:00,
2013-02-02 13:42:00,39.4,27.0,30.27,SE,136,8.0,9.0,62,0.00,,,0.00,weatherlink.com 1.10,2013-02-02 18:42:00,
2013-02-02 13:57:00,40.4,29.0,30.26,SSE,148,4.0,8.0,63,0.00,,,0.00,weatherlink.com 1.10,2013-02-02 18:57:00,
2013-02-02 14:12:00,41.4,30.0,30.25,SE,142,3.0,8.0,64,0.00,,,0.00,weatherlink.com 1.10,2013-02-02 19:12:00,
2013-02-02 14:27:00,41.9,31.0,30.24,SSE,163,1.0,8.0,65,0.00,,,0.00,weatherlink.com 1.10,2013-02-02 19:27:00,
2013-02-02 14:42:00,43.2,31.0,30.23,South,182,3.0,7.0,63,0.00,,,0.00,weatherlink.com 1.10,2013-02-02 19:42:00,
2013-02-02 14:57:00,44.1,32.0,30.22,South,185,3.0,8.0,62,0.00,,,0.00,weatherlink.com 1.10,2013-02-02 19:57:00,
2013-02-02 15:12:00,44.2,33.0,30.22,South,188,3.0,6.0,64,0.00,,,0.00,weatherlink.com 1.10,2013-02-02 20:12:00,
2013-02-02 15:27:00,44.8,33.0,30.21,SSW,202,3.0,7.0,63,0.00,,,0.00,weatherlink.com 1.10,2013-02-02 20:27:00,
2013-02-02 15:42:00,45.3,33.0,30.20,SSW,209,5.0,5.0,63,0.00,,,0.00,weatherlink.com 1.10,2013-02-02 20:42:00,
2013-02-02 15:57:00,45.4,34.0,30.20,South,188,2.0,6.0,64,0.00,,,0.00,weatherlink.com 1.10,2013-02-02 20:57:00,
2013-02-02 16:12:00,45.6,35.0,30.19,SSW,207,3.0,8.0,66,0.00,,,0.00,weatherlink.com 1.10,2013-02-02 21:12:00,
2013-02-02 16:27:00,45.6,35.0,30.18,SSW,206,5.0,7.0,67,0.00,,,0.00,weatherlink.com 1.10,2013-02-02 21:27:00,
2013-02-02 16:42:00,46.1,36.0,30.18,SSW,207,5.0,8.0,67,0.00,,,0.00,weatherlink.com 1.10,2013-02-02 21:42:00,
2013-02-02 16:57:00,46.3,37.0,30.17,SW,225,5.0,8.0,69,0.00,,,0.00,weatherlink.com 1.10,2013-02-02 21:57:00,
2013-02-02 17:12:00,46.5,38.0,30.16,SSE,167,2.0,4.0,71,0.00,,,0.00,weatherlink.com 1.10,2013-02-02 22:12:00,
2013-02-02 17:27:00,46.5,38.0,30.17,SSW,202,2.0,5.0,73,0.00,,,0.00,weatherlink.com 1.10,2013-02-02 22:27:00,
2013-02-02 17:42:00,46.9,39.0,30.16,West,261,2.0,6.0,74,0.00,,,0.00,weatherlink.com 1.10,2013-02-02 22:42:00,
2013-02-02 17:57:00,47.1,39.0,30.15,SW,219,0.0,5.0,74,0.00,,,0.00,weatherlink.com 1.10,2013-02-02 22:57:00,
2013-02-02 18:12:00,47.2,39.0,30.15,SW,225,0.0,5.0,74,0.00,,,0.00,weatherlink.com 1.10,2013-02-02 23:12:00,
2013-02-02 18:27:00,46.1,39.0,30.14,SW,226,0.0,3.0,75,0.00,,,0.00,weatherlink.com 1.10,2013-02-02 23:27:00,
2013-02-02 18:42:00,45.1,38.0,30.14,SW,226,2.0,2.0,77,0.00,,,0.00,weatherlink.com 1.10,2013-02-02 23:42:00,
2013-02-02 18:57:00,44.1,38.0,30.13,ENE,58,0.0,3.0,78,0.00,,,0.00,weatherlink.com 1.10,2013-02-02 23:57:00,
2013-02-02 19:13:00,43.6,38.0,30.14,NNW,327,3.0,5.0,79,0.00,,,0.00,weatherlink.com 1.10,2013-02-03 00:13:00,
2013-02-02 19:27:00,43.1,38.0,30.13,NNW,336,2.0,5.0,83,0.00,,,0.00,weatherlink.com 1.10,2013-02-03 00:27:00,
2013-02-02 19:42:00,42.7,38.0,30.13,NNW,336,2.0,3.0,83,0.00,,,0.00,weatherlink.com 1.10,2013-02-03 00:42:00,
2013-02-02 19:58:00,42.5,38.0,30.12,NNW,336,1.0,3.0,84,0.00,,,0.00,weatherlink.com 1.10,2013-02-03 00:58:00,
2013-02-02 20:13:00,42.5,38.0,30.11,NNW,336,0.0,1.0,84,0.00,,,0.00,weatherlink.com 1.10,2013-02-03 01:13:00,
2013-02-02 20:29:00,42.4,38.0,30.10,NNW,336,0.0,1.0,84,0.00,,,0.00,weatherlink.com 1.10,2013-02-03 01:29:00,
2013-02-02 20:43:00,43.0,38.0,30.09,West,275,1.0,4.0,83,0.00,,,0.00,weatherlink.com 1.10,2013-02-03 01:43:00,
2013-02-02 20:58:00,43.7,39.0,30.08,West,275,0.0,3.0,82,0.00,,,0.00,weatherlink.com 1.10,2013-02-03 01:58:00,
2013-02-02 21:13:00,43.2,38.0,30.07,West,275,0.0,2.0,82,0.00,,,0.00,weatherlink.com 1.10,2013-02-03 02:13:00,
2013-02-02 21:28:00,43.8,39.0,30.07,West,275,0.0,1.0,84,0.00,,,0.00,weatherlink.com 1.10,2013-02-03 02:28:00,
2013-02-02 21:43:00,42.5,38.0,30.07,West,275,1.0,2.0,85,0.00,,,0.00,weatherlink.com 1.10,2013-02-03 02:43:00,
2013-02-02 21:58:00,42.1,38.0,30.06,West,275,2.0,2.0,86,0.00,,,0.00,weatherlink.com 1.10,2013-02-03 02:58:00,
2013-02-02 22:13:00,43.5,40.0,30.06,West,274,2.0,3.0,88,0.00,,,0.00,weatherlink.com 1.10,2013-02-03 03:13:00,
2013-02-02 22:28:00,44.5,41.0,30.05,West,264,3.0,5.0,87,0.00,,,0.00,weatherlink.com 1.10,2013-02-03 03:28:00,
2013-02-02 22:43:00,45.2,42.0,30.05,West,261,2.0,6.0,89,0.00,,,0.00,weatherlink.com 1.10,2013-02-03 03:43:00,
2013-02-02 22:58:00,47.2,44.0,30.05,West,269,3.0,10.0,88,0.00,,,0.00,weatherlink.com 1.10,2013-02-03 03:58:00,
2013-02-02 23:13:00,48.3,44.0,30.05,West,265,6.0,9.0,86,0.00,,,0.00,weatherlink.com 1.10,2013-02-03 04:13:00,
2013-02-02 23:28:00,47.3,43.0,30.04,West,275,4.0,6.0,85,0.00,,,0.00,weatherlink.com 1.10,2013-02-03 04:28:00,
2013-02-02 23:43:00,47.4,43.0,30.04,West,263,4.0,10.0,83,0.00,,,0.00,weatherlink.com 1.10,2013-02-03 04:43:00,
2013-02-02 23:58:00,47.5,42.0,30.04,West,281,5.0,11.0,81,0.00,,,0.00,weatherlink.com 1.10,2013-02-03 04:58:00,